Time;durP1;ratioP1;P1;durP2;ratioP2;P2;SDS_P1;SDS_P2;PMS_P1;PMS_P2;Temp;Humidity;BMP_temperature;BMP_pressure;BME280_temperature;BME280_humidity;BME280_pressure;Samples;Min_cycle;Max_cycle;Signal;HPM_P1;HPM_P2
2021/12/08 00:02:18;;;;;;;8.82;6.03;;;;;;;5.94;100.00;98929.06;5147628;27;20538;-67
2021/12/08 00:04:43;;;;;;;9.48;6.60;;;;;;;5.96;100.00;98945.88;5089695;27;20031;-68
2021/12/08 00:07:09;;;;;;;11.52;6.97;;;;;;;6.01;100.00;98951.25;5129102;27;20109;-68
2021/12/08 00:14:52;;;;;;;11.55;6.78;;;;;;;6.15;100.00;98954.81;5127792;27;20799;-68
2021/12/08 00:17:18;;;;;;;8.23;7.00;;;;;;;6.14;100.00;98955.13;5129081;27;20058;-68
2021/12/08 00:19:43;;;;;;;11.65;7.25;;;;;;;6.05;100.00;98953.09;5108829;27;20110;-68
2021/12/08 00:22:09;;;;;;;9.93;7.18;;;;;;;6.06;100.00;98945.72;5128389;27;20114;-67
2021/12/08 00:24:35;;;;;;;8.70;7.90;;;;;;;6.09;100.00;98942.41;5145603;27;20449;-68
2021/12/08 00:27:02;;;;;;;10.48;7.57;;;;;;;6.14;100.00;98936.88;5128076;27;20484;-68
2021/12/08 00:29:27;;;;;;;11.18;7.72;;;;;;;6.10;100.00;98933.16;5133176;27;20019;-68
2021/12/08 00:31:52;;;;;;;10.57;7.78;;;;;;;6.14;100.00;98920.56;5124655;27;20027;-67
2021/12/08 00:34:18;;;;;;;12.60;8.20;;;;;;;6.14;100.00;98928.72;5123651;27;20031;-68
2021/12/08 00:36:47;;;;;;;15.48;7.93;;;;;;;6.08;100.00;98924.47;5125488;27;20493;-68
2021/12/08 00:39:13;;;;;;;9.20;8.23;;;;;;;6.15;100.00;98932.22;5091105;27;20027;-67
2021/12/08 00:41:40;;;;;;;13.02;8.25;;;;;;;6.17;100.00;98932.75;5127524;27;20130;-67
2021/12/08 00:44:06;;;;;;;14.38;8.13;;;;;;;6.27;100.00;98938.00;5129288;27;20039;-67
2021/12/08 00:46:32;;;;;;;12.05;8.10;;;;;;;6.32;100.00;98937.13;5109039;27;20208;-68
2021/12/08 00:48:58;;;;;;;16.60;9.05;;;;;;;6.30;100.00;98928.44;5103589;27;20168;-67
2021/12/08 00:51:23;;;;;;;11.80;8.48;;;;;;;6.18;100.00;98918.84;5106286;27;20033;-68
2021/12/08 00:53:49;;;;;;;11.07;7.55;;;;;;;6.31;100.00;98927.31;5122577;27;20033;-68
2021/12/08 00:56:15;;;;;;;10.52;7.70;;;;;;;6.31;100.00;98943.66;5090484;27;20397;-68
2021/12/08 00:58:41;;;;;;;11.35;7.75;;;;;;;6.34;100.00;98948.50;5102032;27;20168;-67
2021/12/08 01:01:08;;;;;;;8.65;7.10;;;;;;;6.40;100.00;98956.28;5126249;27;20445;-67
2021/12/08 01:03:38;;;;;;;9.25;6.93;;;;;;;6.32;100.00;98948.00;5123514;27;20023;-69
2021/12/08 01:06:05;;;;;;;11.30;6.70;;;;;;;6.36;100.00;98959.88;5089437;27;20438;-68
2021/12/08 01:08:31;;;;;;;10.10;6.90;;;;;;;6.35;100.00;98961.00;5124421;27;20484;-69
2021/12/08 01:11:01;;;;;;;9.73;6.28;;;;;;;6.43;100.00;98969.28;5105837;27;20078;-68
2021/12/08 01:13:28;;;;;;;12.85;6.60;;;;;;;6.40;100.00;98966.38;5122642;27;20133;-68
2021/12/08 01:15:56;;;;;;;9.80;6.18;;;;;;;6.29;100.00;98979.34;5106460;27;20023;-67
2021/12/08 01:18:23;;;;;;;10.18;6.18;;;;;;;6.31;100.00;98977.13;5127520;27;20031;-68
2021/12/08 01:20:51;;;;;;;12.40;6.50;;;;;;;6.32;100.00;98977.94;5091759;27;20050;-68
2021/12/08 01:23:17;;;;;;;8.98;5.75;;;;;;;6.42;100.00;98983.19;5090096;27;20484;-67
2021/12/08 01:25:43;;;;;;;8.27;5.60;;;;;;;6.34;100.00;98998.28;5105058;27;20027;-67
2021/12/08 01:28:09;;;;;;;7.72;4.72;;;;;;;6.53;100.00;98997.44;5105610;27;20026;-67
2021/12/08 01:30:35;;;;;;;9.50;5.28;;;;;;;6.35;100.00;99001.84;5087329;27;20019;-67
2021/12/08 01:33:01;;;;;;;8.13;4.88;;;;;;;6.54;100.00;99002.59;5105884;27;20550;-67
2021/12/08 01:35:27;;;;;;;10.40;5.15;;;;;;;6.47;100.00;99015.75;5122819;27;20039;-68
2021/12/08 01:37:52;;;;;;;12.88;5.10;;;;;;;6.50;100.00;99015.16;5123590;27;20034;-69
2021/12/08 01:40:18;;;;;;;8.38;5.20;;;;;;;6.33;100.00;99015.75;5105684;27;20039;-69
2021/12/08 01:42:48;;;;;;;8.07;4.85;;;;;;;6.38;100.00;99012.13;5086702;27;20273;-68
2021/12/08 01:48:08;;;;;;;;;;;;;;;6.38;100.00;99014.84;5125618;27;20045;-68
2021/12/08 01:50:35;;;;;;;6.82;5.18;;;;;;;6.49;100.00;99010.03;5103235;27;20013;-68
2021/12/08 01:53:02;;;;;;;12.35;5.20;;;;;;;6.40;100.00;99028.97;5124910;27;20540;-69
2021/12/08 01:55:27;;;;;;;6.95;4.78;;;;;;;6.51;100.00;99024.97;5124015;27;20030;-69
2021/12/08 01:57:53;;;;;;;7.47;5.50;;;;;;;6.61;100.00;99029.41;5102941;27;20079;-69
2021/12/08 02:00:30;;;;;;;9.50;5.05;;;;;;;6.37;100.00;99024.13;5122067;27;20143;-69
2021/12/08 02:02:56;;;;;;;6.45;5.03;;;;;;;6.42;100.00;99034.91;5122975;27;20023;-70
2021/12/08 02:05:22;;;;;;;9.43;4.53;;;;;;;6.31;100.00;99039.72;5122875;27;20027;-69
2021/12/08 02:07:48;;;;;;;7.13;3.90;;;;;;;6.16;100.00;99032.59;5109929;27;20291;-70
2021/12/08 02:10:14;;;;;;;6.18;3.33;;;;;;;6.09;100.00;99039.56;5109752;27;20027;-69
2021/12/08 02:12:41;;;;;;;5.22;2.95;;;;;;;6.16;100.00;99042.69;5088693;27;20027;-69
2021/12/08 02:15:10;;;;;;;2.67;1.52;;;;;;;5.90;100.00;99040.34;5098172;27;20554;-69
2021/12/08 02:17:37;;;;;;;2.65;1.40;;;;;;;5.78;100.00;99034.53;5104264;27;20026;-69
2021/12/08 02:20:05;;;;;;;2.85;1.30;;;;;;;5.91;100.00;99041.16;5101878;27;20621;-69
2021/12/08 02:22:31;;;;;;;5.00;1.10;;;;;;;6.11;100.00;99042.78;5108415;27;20024;-68
2021/12/08 02:24:58;;;;;;;2.85;0.93;;;;;;;6.13;100.00;99046.81;5126153;27;20136;-69
2021/12/08 02:27:25;;;;;;;3.10;1.10;;;;;;;5.85;100.00;99059.44;5127470;27;20031;-69
2021/12/08 02:29:58;;;;;;;3.45;0.80;;;;;;;5.71;100.00;99056.66;5070841;27;20053;-69
2021/12/08 02:48:35;;;;;;;3.35;0.88;;;;;;;6.15;100.00;99038.34;5110574;27;20046;-69
2021/12/08 02:51:01;;;;;;;4.75;1.38;;;;;;;6.27;100.00;99029.75;5109865;27;20035;-68
2021/12/08 02:53:27;;;;;;;4.18;1.17;;;;;;;6.15;100.00;99032.91;5109203;27;20024;-68
2021/12/08 02:55:53;;;;;;;4.80;1.27;;;;;;;6.18;100.00;99035.88;5108647;27;20042;-68
2021/12/08 02:58:19;;;;;;;4.65;2.17;;;;;;;6.17;100.00;99038.88;5074184;27;20169;-68
2021/12/08 03:00:58;;;;;;;4.97;2.90;;;;;;;6.31;100.00;99033.47;5107799;27;20027;-68
2021/12/08 03:03:25;;;;;;;6.63;3.78;;;;;;;6.14;100.00;99048.44;5126437;27;20376;-69
2021/12/08 03:05:53;;;;;;;7.55;4.07;;;;;;;6.14;100.00;99047.63;5110334;27;20383;-68
2021/12/08 03:08:18;;;;;;;10.10;4.95;;;;;;;6.15;100.00;99047.34;5108669;27;20039;-68
2021/12/08 03:10:46;;;;;;;12.55;5.22;;;;;;;6.07;100.00;99048.00;5128331;27;20106;-68
2021/12/08 03:13:13;;;;;;;9.63;5.97;;;;;;;6.13;100.00;99037.84;5125227;27;20249;-69
2021/12/08 03:15:39;;;;;;;11.70;6.13;;;;;;;6.00;100.00;99037.50;5143868;27;20030;-68
2021/12/08 03:18:05;;;;;;;12.90;5.43;;;;;;;5.97;100.00;99029.09;5147710;27;20038;-68
2021/12/08 03:20:42;;;;;;;8.60;4.22;;;;;;;5.81;100.00;99053.78;5127471;27;20033;-68
2021/12/08 03:23:11;;;;;;;7.68;2.83;;;;;;;5.84;100.00;99047.78;5147500;27;20065;-68
2021/12/08 03:25:40;;;;;;;7.43;2.80;;;;;;;5.80;100.00;99048.66;5148076;27;20027;-68
2021/12/08 03:28:17;;;;;;;7.22;2.88;;;;;;;5.92;100.00;99054.47;5108903;27;20027;-68
2021/12/08 03:33:45;;;;;;;7.25;2.30;;;;;;;5.68;100.00;99052.63;5059901;28;20036;-68
2021/12/08 03:36:10;;;;;;;5.80;1.60;;;;;;;5.75;100.00;99057.69;5093967;27;20049;-68
2021/12/08 03:38:39;;;;;;;5.72;1.75;;;;;;;5.65;100.00;99066.00;5146505;27;20026;-68
2021/12/08 03:41:06;;;;;;;7.07;1.70;;;;;;;5.57;100.00;99061.22;5107721;27;20122;-67
2021/12/08 03:43:32;;;;;;;3.15;1.30;;;;;;;5.51;100.00;99058.56;5122662;27;20040;-68
2021/12/08 03:45:58;;;;;;;3.90;1.48;;;;;;;5.74;100.00;99057.97;5106843;27;20803;-68
2021/12/08 03:48:38;;;;;;;5.47;1.70;;;;;;;5.68;100.00;99076.28;5106788;27;20035;-69
2021/12/08 03:51:04;;;;;;;5.38;1.80;;;;;;;5.53;100.00;99050.13;5107098;27;20405;-69
2021/12/08 03:53:29;;;;;;;6.90;2.05;;;;;;;5.49;100.00;99066.22;5126898;27;20602;-68
2021/12/08 03:55:56;;;;;;;4.97;1.75;;;;;;;5.37;100.00;99063.09;5125921;27;20038;-67
2021/12/08 03:58:25;;;;;;;5.70;1.98;;;;;;;5.58;100.00;99071.78;5105703;27;20122;-67
2021/12/08 04:00:52;;;;;;;8.32;2.53;;;;;;;5.47;100.00;99079.25;5105143;27;20031;-67
2021/12/08 04:03:20;;;;;;;8.30;2.40;;;;;;;5.33;100.00;99078.38;5106261;27;20107;-67
2021/12/08 04:05:54;;;;;;;8.52;2.42;;;;;;;5.45;100.00;99086.91;5107342;27;20026;-69
2021/12/08 04:08:30;;;;;;;9.40;2.67;;;;;;;5.56;100.00;99081.31;5108558;27;20072;-67
2021/12/08 04:11:03;;;;;;;6.95;2.83;;;;;;;5.46;100.00;99083.09;5102013;27;20034;-67
2021/12/08 04:14:03;;;;;;;8.65;2.78;;;;;;;5.49;100.00;99068.94;5116070;27;20120;-67
2021/12/08 04:16:33;;;;;;;8.02;2.50;;;;;;;5.49;100.00;99065.38;5124919;27;20037;-67
2021/12/08 04:19:01;;;;;;;8.23;2.60;;;;;;;5.39;100.00;99068.22;5106970;27;20116;-67
2021/12/08 04:21:27;;;;;;;6.95;2.67;;;;;;;5.52;100.00;99075.66;5092861;27;20045;-67
2021/12/08 04:23:53;;;;;;;13.35;2.95;;;;;;;5.38;100.00;99083.75;5125727;27;20154;-67
2021/12/08 04:26:31;;;;;;;9.18;2.50;;;;;;;5.37;100.00;99087.53;5120025;27;20190;-67
2021/12/08 04:28:58;;;;;;;8.88;2.60;;;;;;;5.34;100.00;99091.66;5102158;27;20027;-67
2021/12/08 04:31:29;;;;;;;8.35;2.63;;;;;;;5.32;100.00;99093.84;5104940;27;20072;-67
2021/12/08 04:34:01;;;;;;;9.82;2.70;;;;;;;5.36;100.00;99104.13;5126720;27;20028;-67
2021/12/08 04:36:33;;;;;;;7.60;2.70;;;;;;;5.40;100.00;99106.00;5110965;27;20042;-66
2021/12/08 04:39:06;;;;;;;8.15;2.50;;;;;;;5.21;100.00;99113.28;5112159;27;20244;-67
2021/12/08 04:41:38;;;;;;;;;;;;;;;5.18;100.00;99119.28;5113089;27;20030;-67
2021/12/08 04:44:33;;;;;;;6.53;2.90;;;;;;;5.22;100.00;99117.63;5103913;27;20381;-67
2021/12/08 04:47:21;;;;;;;7.85;3.38;;;;;;;5.22;100.00;99126.56;5121220;27;20473;-68
2021/12/08 04:52:22;;;;;;;8.85;3.28;;;;;;;5.30;100.00;99108.84;5123963;27;20023;-67
2021/12/08 05:00:46;;;;;;;8.07;3.38;;;;;;;5.09;100.00;99100.91;5122343;27;20389;-67
2021/12/08 05:03:38;;;;;;;7.68;3.53;;;;;;;5.22;100.00;99090.47;5123197;27;20495;-68
2021/12/08 05:08:43;;;;;;;11.95;4.28;;;;;;;5.36;100.00;99099.50;5125336;27;20031;-67
2021/12/08 05:11:14;;;;;;;9.98;4.03;;;;;;;5.19;100.00;99088.31;5104886;27;20050;-68
2021/12/08 05:13:42;;;;;;;8.68;3.28;;;;;;;4.93;100.00;99094.00;5126673;27;20023;-67
2021/12/08 05:16:11;;;;;;;7.35;3.53;;;;;;;5.03;100.00;99099.34;5123318;27;20059;-66
2021/12/08 05:18:44;;;;;;;11.98;3.95;;;;;;;5.18;100.00;99103.00;5088963;27;20026;-68
2021/12/08 05:21:18;;;;;;;9.70;3.63;;;;;;;5.22;100.00;99106.75;5122335;27;20023;-67
2021/12/08 05:23:49;;;;;;;10.73;3.88;;;;;;;5.04;100.00;99111.03;5107809;27;20046;-69
2021/12/08 05:26:54;;;;;;;9.95;3.95;;;;;;;5.07;100.00;99108.53;5104730;27;20022;-67
2021/12/08 05:29:29;;;;;;;8.85;3.40;;;;;;;5.13;100.00;99115.53;5123098;27;21068;-68
2021/12/08 05:31:57;;;;;;;11.63;3.47;;;;;;;5.20;100.00;99112.47;5124226;27;20019;-67
2021/12/08 05:34:22;;;;;;;12.00;3.72;;;;;;;5.10;100.00;99129.69;5106410;27;20152;-67
2021/12/08 05:36:49;;;;;;;12.45;3.70;;;;;;;5.05;100.00;99126.22;5122979;27;20031;-67
2021/12/08 05:39:20;;;;;;;14.65;3.60;;;;;;;5.06;100.00;99139.50;5105621;27;20038;-67
2021/12/08 05:41:49;;;;;;;10.13;3.17;;;;;;;5.11;100.00;99150.31;5106741;27;20038;-68
2021/12/08 05:44:20;;;;;;;12.43;4.00;;;;;;;5.15;100.00;99148.66;5124286;27;20035;-67
2021/12/08 05:46:49;;;;;;;8.10;3.30;;;;;;;5.23;100.00;99166.25;5087512;27;20407;-68
2021/12/08 05:49:18;;;;;;;10.93;3.25;;;;;;;5.31;100.00;99167.50;5123363;27;20027;-66
2021/12/08 05:51:46;;;;;;;11.20;2.70;;;;;;;5.39;100.00;99150.56;5103700;27;20031;-67
2021/12/08 05:54:16;;;;;;;9.52;2.78;;;;;;;5.32;100.00;99164.50;5105494;27;20019;-68
2021/12/08 05:56:49;;;;;;;7.35;2.92;;;;;;;5.31;100.00;99165.63;5123890;27;20099;-67
2021/12/08 05:59:16;;;;;;;;;;;;;;;5.19;100.00;99164.38;5124446;27;20026;-68
2021/12/08 06:01:56;;;;;;;9.23;2.83;;;;;;;5.24;100.00;99175.19;5102595;27;19926;-67
2021/12/08 06:04:24;;;;;;;12.43;2.90;;;;;;;5.26;100.00;99167.56;5105270;27;20485;-66
2021/12/08 06:06:50;;;;;;;12.73;2.70;;;;;;;5.07;100.00;99179.16;5104018;27;20084;-66
2021/12/08 06:09:18;;;;;;;9.90;2.70;;;;;;;5.19;100.00;99184.22;5088588;27;20031;-67
2021/12/08 06:11:45;;;;;;;13.00;3.35;;;;;;;5.12;100.00;99189.97;5106929;27;20035;-66
2021/12/08 06:14:12;;;;;;;8.43;2.80;;;;;;;5.07;100.00;99202.81;5111437;27;20027;-67
2021/12/08 06:16:41;;;;;;;8.63;2.40;;;;;;;5.11;100.00;99187.53;5087332;27;20023;-68
2021/12/08 06:19:09;;;;;;;9.93;3.00;;;;;;;5.09;100.00;99192.47;5143887;27;20027;-68
2021/12/08 06:21:35;;;;;;;8.07;2.50;;;;;;;5.20;100.00;99195.88;5146225;27;20455;-68
2021/12/08 06:24:03;;;;;;;12.23;2.90;;;;;;;5.07;100.00;99200.91;5126874;27;20026;-68
2021/12/08 06:26:29;;;;;;;13.70;2.90;;;;;;;5.11;100.00;99201.94;5143001;27;20050;-68
2021/12/08 06:28:56;;;;;;;14.57;2.95;;;;;;;5.14;100.00;99200.56;5126165;27;20035;-67
2021/12/08 06:31:24;;;;;;;11.65;2.67;;;;;;;5.10;100.00;99211.19;5120172;27;20058;-69
2021/12/08 06:33:50;;;;;;;11.82;2.90;;;;;;;4.99;100.00;99203.44;5144992;27;20107;-67
2021/12/08 06:36:20;;;;;;;8.38;2.50;;;;;;;5.08;100.00;99205.25;5121323;27;20037;-68
2021/12/08 06:38:47;;;;;;;14.45;3.97;;;;;;;5.00;100.00;99221.31;5125938;27;20385;-68
2021/12/08 06:41:22;;;;;;;9.07;2.78;;;;;;;5.18;100.00;99215.19;5121132;27;20504;-69
2021/12/08 06:43:52;;;;;;;12.30;3.13;;;;;;;5.12;100.00;99219.84;5124096;27;20036;-68
2021/12/08 06:46:19;;;;;;;11.60;2.97;;;;;;;4.93;100.00;99210.78;5101832;27;20122;-69
2021/12/08 06:48:50;;;;;;;11.57;2.83;;;;;;;5.05;100.00;99224.00;5104356;27;20034;-69
2021/12/08 06:51:21;;;;;;;12.13;3.55;;;;;;;4.97;100.00;99222.72;5119832;27;20027;-66
2021/12/08 06:53:52;;;;;;;11.55;2.72;;;;;;;4.89;100.00;99226.06;5124121;27;20060;-68
2021/12/08 06:56:27;;;;;;;9.82;2.72;;;;;;;5.09;100.00;99225.88;5122882;27;20034;-68
2021/12/08 06:58:58;;;;;;;12.35;2.72;;;;;;;4.94;100.00;99232.22;5105511;27;20594;-69
2021/12/08 07:01:47;;;;;;;7.75;2.80;;;;;;;5.12;100.00;99233.44;5099569;27;20497;-67
2021/12/08 07:07:01;;;;;;;12.85;3.05;;;;;;;5.02;100.00;99224.56;5121444;27;20033;-68
2021/12/08 07:09:46;;;;;;;14.10;3.07;;;;;;;5.04;100.00;99234.06;5108454;27;20377;-67
2021/12/08 07:12:17;;;;;;;9.90;2.65;;;;;;;4.74;100.00;99227.78;5127810;27;20027;-68
2021/12/08 07:14:48;;;;;;;15.55;3.58;;;;;;;4.94;100.00;99234.94;5130256;27;20022;-66
2021/12/08 07:17:21;;;;;;;10.85;3.35;;;;;;;4.93;100.00;99235.22;5126964;27;20019;-67
2021/12/08 07:19:50;;;;;;;14.40;3.47;;;;;;;4.95;100.00;99235.75;5126487;27;20105;-68
2021/12/08 07:22:25;;;;;;;12.68;2.97;;;;;;;4.85;100.00;99228.50;5106916;27;20092;-68
2021/12/08 07:24:55;;;;;;;12.20;3.33;;;;;;;4.78;100.00;99230.75;5127733;27;20027;-67
2021/12/08 07:27:29;;;;;;;16.95;4.45;;;;;;;4.83;100.00;99240.75;5108155;27;20023;-68
2021/12/08 07:29:58;;;;;;;12.77;3.35;;;;;;;4.87;100.00;99239.06;5125407;27;20549;-69
2021/12/08 07:32:28;;;;;;;9.32;3.10;;;;;;;4.94;100.00;99248.53;5105311;27;20023;-68
2021/12/08 07:34:57;;;;;;;12.10;3.33;;;;;;;5.06;100.00;99247.34;5127982;27;20069;-67
2021/12/08 07:37:29;;;;;;;14.65;3.63;;;;;;;4.92;100.00;99242.59;5124038;27;20484;-67
2021/12/08 07:40:00;;;;;;;12.18;3.53;;;;;;;5.03;100.00;99246.00;5109005;27;20019;-67
2021/12/08 07:42:35;;;;;;;16.90;3.90;;;;;;;5.08;100.00;99243.28;5125312;27;20035;-67
2021/12/08 07:45:09;;;;;;;12.25;3.58;;;;;;;4.96;100.00;99256.41;5126449;27;20058;-66
2021/12/08 07:47:35;;;;;;;14.00;3.42;;;;;;;4.89;100.00;99267.59;5104908;27;20457;-68
2021/12/08 07:50:10;;;;;;;13.57;3.22;;;;;;;4.93;100.00;99257.75;5127902;27;20035;-68
2021/12/08 07:52:40;;;;;;;13.13;3.58;;;;;;;4.95;100.00;99249.34;5122650;27;20019;-66
2021/12/08 07:55:11;;;;;;;8.75;2.88;;;;;;;5.10;100.00;99253.81;5108932;27;20031;-68
2021/12/08 07:57:37;;;;;;;13.05;3.45;;;;;;;4.87;100.00;99252.66;5124489;27;20019;-69
2021/12/08 08:00:13;;;;;;;10.65;3.10;;;;;;;5.11;100.00;99258.19;5124986;27;20334;-67
2021/12/08 08:02:38;;;;;;;9.30;3.33;;;;;;;4.90;100.00;99250.22;5106589;27;20475;-68
2021/12/08 08:05:05;;;;;;;14.02;3.33;;;;;;;5.24;100.00;99259.44;5091601;27;20058;-68
2021/12/08 08:07:32;;;;;;;12.35;3.22;;;;;;;5.26;100.00;99257.22;5122802;27;20027;-68
2021/12/08 08:09:59;;;;;;;11.65;3.15;;;;;;;5.27;100.00;99275.16;5109126;27;20023;-67
2021/12/08 08:12:29;;;;;;;12.70;4.03;;;;;;;5.44;100.00;99274.72;5125722;27;20038;-67
2021/12/08 08:14:58;;;;;;;10.52;3.28;;;;;;;5.12;100.00;99271.47;5106802;27;20113;-68
2021/12/08 08:17:36;;;;;;;10.48;3.35;;;;;;;5.32;100.00;99265.06;5123908;27;20045;-67
2021/12/08 08:20:25;;;;;;;9.25;3.53;;;;;;;5.37;100.00;99261.47;5106189;27;20385;-67
2021/12/08 08:22:51;;;;;;;10.43;3.65;;;;;;;5.29;100.00;99262.91;5107739;27;20370;-67
2021/12/08 08:25:20;;;;;;;11.82;3.45;;;;;;;5.23;100.00;99264.06;5090816;27;20054;-68
2021/12/08 08:27:47;;;;;;;7.15;3.15;;;;;;;5.44;100.00;99274.72;5124666;27;20078;-67
2021/12/08 08:30:19;;;;;;;11.20;4.22;;;;;;;5.42;100.00;99280.44;5123660;27;20022;-66
2021/12/08 08:32:49;;;;;;;14.10;3.60;;;;;;;5.21;100.00;99279.00;5103006;27;20472;-69
2021/12/08 08:35:38;;;;;;;11.05;3.33;;;;;;;5.59;100.00;99266.44;5124494;27;20110;-67
2021/12/08 08:38:08;;;;;;;9.10;3.28;;;;;;;5.72;100.00;99259.50;5124740;27;20030;-67
2021/12/08 08:40:39;;;;;;;10.52;3.20;;;;;;;5.59;100.00;99268.34;5104933;27;20129;-68
2021/12/08 08:43:07;;;;;;;9.13;2.60;;;;;;;5.64;100.00;99271.00;5126717;27;20023;-67
2021/12/08 08:45:42;;;;;;;9.73;3.00;;;;;;;5.95;100.00;99273.38;5102992;27;20054;-67
2021/12/08 08:48:30;;;;;;;7.65;2.40;;;;;;;6.19;100.00;99267.97;5123405;27;20442;-68
2021/12/08 08:51:06;;;;;;;7.18;2.65;;;;;;;6.09;100.00;99276.25;5104397;27;20096;-67
2021/12/08 08:53:35;;;;;;;7.10;2.40;;;;;;;6.22;100.00;99281.00;5124277;27;20016;-67
2021/12/08 08:56:07;;;;;;;10.30;2.75;;;;;;;5.99;100.00;99278.00;5104490;27;20105;-68
2021/12/08 08:58:35;;;;;;;5.65;2.13;;;;;;;5.97;100.00;99290.25;5105121;27;20050;-68
2021/12/08 09:01:13;;;;;;;7.50;2.60;;;;;;;6.07;100.00;99292.88;5122467;27;20481;-68
2021/12/08 09:03:42;;;;;;;5.88;1.90;;;;;;;6.09;100.00;99287.94;5104949;27;20054;-67
2021/12/08 09:06:12;;;;;;;7.22;2.28;;;;;;;6.10;100.00;99289.59;5122599;27;20117;-69
2021/12/08 09:08:39;;;;;;;5.75;2.33;;;;;;;5.96;100.00;99288.63;5123579;27;20464;-66
2021/12/08 09:11:36;;;;;;;7.88;2.28;;;;;;;5.85;100.00;99286.03;5107093;27;20068;-66
2021/12/08 09:14:16;;;;;;;6.10;2.65;;;;;;;5.91;100.00;99285.97;5086042;27;20027;-68
2021/12/08 09:16:53;;;;;;;8.93;3.17;;;;;;;5.89;100.00;99286.25;5084124;27;20050;-67
2021/12/08 09:19:30;;;;;;;6.85;3.35;;;;;;;5.98;100.00;99286.44;5125227;27;20023;-68
2021/12/08 09:22:02;;;;;;;11.55;4.20;;;;;;;5.93;100.00;99300.06;5103169;27;20037;-67
2021/12/08 09:24:38;;;;;;;11.25;4.40;;;;;;;5.99;100.00;99294.31;5123837;27;20126;-69
2021/12/08 09:27:09;;;;;;;12.38;4.18;;;;;;;5.87;100.00;99296.59;5128320;27;20062;-67
2021/12/08 09:29:44;;;;;;;12.15;3.75;;;;;;;5.95;100.00;99306.03;5123524;27;20517;-67
2021/12/08 09:32:17;;;;;;;9.05;3.35;;;;;;;5.88;100.00;99323.50;5104239;27;20061;-67
2021/12/08 09:34:54;;;;;;;6.47;2.78;;;;;;;6.01;100.00;99324.75;5126903;27;20074;-67
2021/12/08 09:37:22;;;;;;;10.40;3.83;;;;;;;5.87;100.00;99337.38;5144188;27;20443;-68
2021/12/08 09:39:59;;;;;;;12.48;3.15;;;;;;;6.11;100.00;99337.44;5125004;27;20027;-66
2021/12/08 09:42:31;;;;;;;12.68;3.67;;;;;;;6.19;100.00;99347.69;5145415;27;20026;-67
2021/12/08 09:45:06;;;;;;;9.00;3.47;;;;;;;6.10;100.00;99356.78;5141964;27;20434;-66
2021/12/08 09:47:32;;;;;;;8.52;3.83;;;;;;;6.14;100.00;99352.38;5124694;27;20038;-66
2021/12/08 09:50:00;;;;;;;6.10;3.10;;;;;;;5.99;100.00;99356.09;5123957;27;20030;-68
2021/12/08 09:52:28;;;;;;;13.63;4.20;;;;;;;5.87;100.00;99361.88;5123470;27;20037;-68
2021/12/08 09:54:56;;;;;;;15.50;4.72;;;;;;;6.08;100.00;99359.78;5124360;27;20066;-67
2021/12/08 09:57:23;;;;;;;11.10;4.32;;;;;;;6.10;100.00;99357.59;5125619;27;20488;-66
2021/12/08 09:59:48;;;;;;;11.00;4.68;;;;;;;5.94;100.00;99353.41;5124681;27;20065;-66
2021/12/08 10:02:24;;;;;;;10.57;3.80;;;;;;;6.00;100.00;99361.25;5123871;27;20113;-67
2021/12/08 10:04:50;;;;;;;9.27;4.07;;;;;;;6.18;100.00;99359.69;5125071;27;20042;-67
2021/12/08 10:07:18;;;;;;;10.43;4.40;;;;;;;6.14;100.00;99363.28;5144360;27;20023;-66
2021/12/08 10:09:44;;;;;;;10.57;4.18;;;;;;;6.23;100.00;99364.25;5107468;27;20126;-67
2021/12/08 10:12:10;;;;;;;13.75;4.35;;;;;;;6.34;100.00;99360.31;5142553;27;20039;-67
2021/12/08 10:14:35;;;;;;;9.63;4.95;;;;;;;6.17;100.00;99368.16;5124292;27;20029;-67
2021/12/08 10:17:00;;;;;;;10.07;4.13;;;;;;;6.43;100.00;99371.38;5140645;27;20354;-67
2021/12/08 10:19:26;;;;;;;14.27;4.53;;;;;;;6.28;100.00;99379.72;5126403;27;20083;-66
2021/12/08 10:21:52;;;;;;;13.43;4.53;;;;;;;6.07;100.00;99374.50;5142000;27;20026;-68
2021/12/08 10:24:26;;;;;;;10.05;4.03;;;;;;;6.16;100.00;99374.66;5126890;27;20096;-67
2021/12/08 10:27:01;;;;;;;10.05;4.15;;;;;;;6.40;100.00;99383.66;5140697;27;20384;-66
2021/12/08 10:29:29;;;;;;;10.60;4.68;;;;;;;6.35;100.00;99383.72;5143559;27;20042;-66
2021/12/08 10:31:56;;;;;;;10.00;4.32;;;;;;;6.44;100.00;99383.88;5121225;27;20025;-67
2021/12/08 10:34:29;;;;;;;10.65;4.72;;;;;;;6.41;100.00;99381.72;5144012;27;20033;-67
2021/12/08 10:36:57;;;;;;;;;;;;;;;6.24;100.00;99376.75;5122980;27;20430;-67
2021/12/08 10:39:47;;;;;;;10.68;4.78;;;;;;;6.33;100.00;99377.75;5125037;27;19917;-69
2021/12/08 10:42:28;;;;;;;9.30;4.90;;;;;;;6.47;100.00;99372.41;5143080;27;20034;-66
2021/12/08 10:45:11;;;;;;;9.45;5.05;;;;;;;6.69;100.00;99385.50;5145295;27;20034;-66
2021/12/08 10:47:57;;;;;;;7.85;5.07;;;;;;;6.43;100.00;99372.19;5127377;27;20019;-66
2021/12/08 10:56:02;;;;;;;7.57;3.80;;;;;;;6.39;100.00;99370.31;5123323;27;20058;-67
2021/12/08 10:58:30;;;;;;;7.32;3.28;;;;;;;6.57;100.00;99372.28;5108865;27;20027;-67
2021/12/08 11:00:59;;;;;;;7.80;3.00;;;;;;;6.47;100.00;99366.97;5121968;27;20027;-67
2021/12/08 11:03:31;;;;;;;10.02;3.83;;;;;;;6.41;100.00;99357.22;5125165;27;20031;-69
2021/12/08 11:06:02;;;;;;;10.15;3.60;;;;;;;6.39;100.00;99362.97;5122654;27;20042;-66
2021/12/08 11:08:34;;;;;;;5.35;2.75;;;;;;;6.56;100.00;99370.69;5126811;27;20079;-66
2021/12/08 11:11:07;;;;;;;6.78;2.80;;;;;;;6.53;100.00;99382.16;5120824;27;20059;-67
2021/12/08 11:13:36;;;;;;;10.75;3.35;;;;;;;6.70;100.00;99380.84;5108750;27;20015;-67
2021/12/08 11:16:13;;;;;;;6.55;2.65;;;;;;;6.71;100.00;99368.88;5121661;27;20106;-67
2021/12/08 11:18:42;;;;;;;5.68;3.03;;;;;;;6.78;100.00;99388.38;5125179;27;20110;-67
2021/12/08 11:21:18;;;;;;;7.40;2.85;;;;;;;6.60;100.00;99388.03;5102451;27;20845;-66
2021/12/08 11:23:47;;;;;;;9.65;2.63;;;;;;;6.26;100.00;99404.50;5126770;27;20493;-66
2021/12/08 11:26:21;;;;;;;8.93;3.00;;;;;;;6.66;100.00;99407.03;5103685;27;20031;-66
2021/12/08 11:28:58;;;;;;;6.93;3.13;;;;;;;7.02;100.00;99412.84;5108588;27;20026;-65
2021/12/08 11:31:26;;;;;;;7.00;3.03;;;;;;;6.39;100.00;99406.53;5120944;27;20481;-66
2021/12/08 11:34:03;;;;;;;8.77;3.60;;;;;;;6.74;100.00;99399.03;5090492;27;20029;-66
2021/12/08 11:36:35;;;;;;;6.80;2.78;;;;;;;6.69;100.00;99406.47;5106001;27;20031;-66
2021/12/08 11:39:14;;;;;;;6.63;2.80;;;;;;;6.80;100.00;99400.59;5125918;27;20091;-67
2021/12/08 11:41:45;;;;;;;7.00;2.58;;;;;;;6.74;100.00;99393.59;5104352;27;20035;-66
2021/12/08 11:44:18;;;;;;;4.50;2.28;;;;;;;6.80;100.00;99397.06;5124733;27;20044;-66
2021/12/08 11:46:59;;;;;;;7.57;2.53;;;;;;;6.81;100.00;99394.03;5094534;27;20042;-66
2021/12/08 11:49:30;;;;;;;6.28;2.30;;;;;;;7.08;100.00;99380.88;5090084;27;20119;-66
2021/12/08 11:52:05;;;;;;;5.72;2.20;;;;;;;7.05;100.00;99389.63;5118895;27;20042;-66
2021/12/08 11:54:36;;;;;;;6.03;2.60;;;;;;;6.98;100.00;99396.28;5119389;27;20023;-66
2021/12/08 11:57:08;;;;;;;10.18;3.40;;;;;;;6.80;100.00;99406.06;5125421;27;20022;-65
2021/12/08 11:59:34;;;;;;;6.53;2.28;;;;;;;6.95;100.00;99407.78;5148483;27;20476;-66
2021/12/08 12:02:02;;;;;;;4.55;2.13;;;;;;;7.14;100.00;99406.97;5126003;27;20074;-66
2021/12/08 12:04:28;;;;;;;5.32;2.20;;;;;;;7.22;100.00;99400.84;5127209;27;20050;-67
2021/12/08 12:06:55;;;;;;;5.82;2.25;;;;;;;6.62;100.00;99391.31;5126715;27;20388;-66
2021/12/08 12:09:21;;;;;;;5.00;2.28;;;;;;;6.78;100.00;99402.00;5126801;27;20122;-65
2021/12/08 12:11:48;;;;;;;7.82;2.40;;;;;;;7.02;100.00;99392.94;5127634;27;20026;-67
2021/12/08 12:14:14;;;;;;;8.60;2.63;;;;;;;6.98;100.00;99382.66;5108656;27;20023;-67
2021/12/08 12:16:39;;;;;;;6.65;2.33;;;;;;;7.02;100.00;99401.94;5146544;27;20332;-66
2021/12/08 12:19:06;;;;;;;5.82;2.50;;;;;;;7.03;100.00;99403.56;5125474;27;20436;-68
2021/12/08 12:21:50;;;;;;;7.28;2.40;;;;;;;6.86;100.00;99398.63;5119127;27;20023;-67
2021/12/08 12:24:44;;;;;;;6.45;2.35;;;;;;;7.02;100.00;99409.31;5104410;27;20504;-67
2021/12/08 12:27:28;;;;;;;5.10;2.47;;;;;;;6.83;100.00;99409.28;5123662;27;20416;-67
2021/12/08 12:30:24;;;;;;;5.05;2.42;;;;;;;6.96;100.00;99411.28;5106549;27;20397;-65
2021/12/08 12:32:53;;;;;;;9.52;2.40;;;;;;;7.15;100.00;99406.66;5117460;27;20031;-66
2021/12/08 12:35:23;;;;;;;6.78;2.28;;;;;;;7.36;100.00;99406.34;5108080;27;21161;-66